Time;durP1;ratioP1;P1;durP2;ratioP2;P2;SDS_P1;SDS_P2;PMS_P1;PMS_P2;Temp;Humidity;BMP_temperature;BMP_pressure;BME280_temperature;BME280_humidity;BME280_pressure;Samples;Min_cycle;Max_cycle;Signal;HPM_P1;HPM_P2
2021/09/10 00:01:10;;;;;;;13.57;11.07;;;18.30;99.90;;;;;;6242262;28;20079;-82
2021/09/10 00:04:10;;;;;;;13.23;11.82;;;16.60;99.90;;;;;;6225431;28;20372;-83
2021/09/10 00:07:11;;;;;;;13.55;11.32;;;16.50;99.90;;;;;;6241982;28;20460;-83
2021/09/10 00:10:12;;;;;;;12.90;11.52;;;16.50;99.90;;;;;;6225293;28;20037;-83
2021/09/10 00:13:12;;;;;;;13.80;9.27;;;16.60;99.90;;;;;;6242019;28;20030;-83
2021/09/10 00:16:13;;;;;;;14.50;10.88;;;16.40;99.90;;;;;;6242276;28;20034;-83
2021/09/10 00:19:14;;;;;;;12.98;11.25;;;;;;;;;;6241647;28;20026;-83
2021/09/10 00:22:14;;;;;;;20.42;10.68;;;16.60;99.90;;;;;;6241928;28;20549;-83
2021/09/10 00:25:15;;;;;;;12.23;10.93;;;16.60;99.90;;;;;;6242076;28;20021;-83
2021/09/10 00:28:16;;;;;;;12.05;10.85;;;16.70;99.90;;;;;;6225644;28;20040;-83
2021/09/10 00:31:16;;;;;;;12.02;10.65;;;16.60;99.90;;;;;;6225744;28;20022;-82
2021/09/10 00:34:17;;;;;;;12.02;10.52;;;16.60;99.90;;;;;;6225260;28;20045;-83
2021/09/10 00:37:17;;;;;;;11.85;10.35;;;16.50;99.90;;;;;;6225280;28;20026;-83
2021/09/10 00:40:18;;;;;;;11.77;9.93;;;16.40;99.90;;;;;;6241642;28;20040;-83
2021/09/10 00:43:19;;;;;;;12.73;9.02;;;16.70;99.90;;;;;;6241227;28;20544;-83
2021/09/10 00:46:19;;;;;;;11.05;9.48;;;16.50;99.90;;;;;;6224870;28;20047;-82
2021/09/10 00:49:20;;;;;;;9.65;8.70;;;16.50;99.90;;;;;;6228603;28;20025;-83
2021/09/10 00:52:20;;;;;;;9.70;8.70;;;16.50;99.90;;;;;;6263299;28;20459;-83
2021/09/10 00:55:25;;;;;;;9.60;8.68;;;15.60;99.90;;;;;;6262942;28;20372;-83
2021/09/10 00:58:26;;;;;;;9.88;8.88;;;16.60;99.90;;;;;;6246850;28;20025;-83
2021/09/10 01:01:26;;;;;;;11.13;8.85;;;16.70;99.90;;;;;;6245949;28;20033;-83
2021/09/10 01:04:28;;;;;;;10.50;9.30;;;16.70;99.90;;;;;;6246205;28;20049;-83
2021/09/10 01:07:28;;;;;;;10.60;9.10;;;16.70;99.90;;;;;;6246007;28;20035;-83
2021/09/10 01:10:29;;;;;;;9.50;8.25;;;17.00;99.90;;;;;;6245796;28;20033;-83
2021/09/10 01:13:30;;;;;;;9.43;8.38;;;16.70;99.90;;;;;;6246024;28;20144;-83
2021/09/10 01:16:30;;;;;;;10.68;9.68;;;16.90;99.90;;;;;;6245778;28;20468;-83
2021/09/10 01:19:31;;;;;;;10.27;8.82;;;16.70;99.90;;;;;;6262568;28;20364;-82
2021/09/10 01:22:32;;;;;;;9.63;8.63;;;16.70;99.90;;;;;;6245270;28;20033;-83
2021/09/10 01:25:35;;;;;;;10.52;9.50;;;16.80;99.90;;;;;;6245756;28;20360;-84
2021/09/10 01:28:36;;;;;;;10.80;9.80;;;16.60;99.90;;;;;;6245182;28;20025;-84
2021/09/10 01:31:37;;;;;;;10.80;9.70;;;;;;;;;;6245513;28;20522;-84
2021/09/10 01:34:39;;;;;;;11.38;10.25;;;;;;;;;;6245031;28;20120;-84
2021/09/10 01:37:39;;;;;;;13.63;12.13;;;16.60;99.90;;;;;;6245180;28;20018;-83
2021/09/10 01:40:40;;;;;;;11.77;10.55;;;16.80;99.90;;;;;;6228823;28;20440;-83
2021/09/10 01:43:40;;;;;;;11.60;10.40;;;16.90;99.90;;;;;;6228391;28;20088;-83
2021/09/10 01:46:41;;;;;;;11.88;9.07;;;16.70;99.90;;;;;;6211873;28;20031;-83
2021/09/10 01:49:42;;;;;;;12.30;10.15;;;16.70;99.90;;;;;;6211349;28;20472;-84
2021/09/10 01:52:43;;;;;;;10.75;9.65;;;;;;;;;;6214752;28;20471;-83
2021/09/10 01:55:44;;;;;;;9.93;8.93;;;;;;;;;;6204793;28;20037;-84
2021/09/10 01:58:45;;;;;;;11.55;10.00;;;;;;;;;;6220728;28;20030;-83
2021/09/10 02:01:46;;;;;;;12.45;9.88;;;;;;;;;;6221020;28;20029;-84
2021/09/10 02:04:46;;;;;;;14.20;9.98;;;16.50;99.90;;;;;;6204119;28;20033;-83
2021/09/10 02:07:47;;;;;;;13.73;10.48;;;;;;;;;;6225761;28;20062;-83
2021/09/10 02:10:48;;;;;;;13.77;11.07;;;;;;;;;;6227542;28;20052;-83
2021/09/10 02:13:49;;;;;;;13.52;10.07;;;;;;;;;;6213486;28;20097;-83
2021/09/10 02:16:50;;;;;;;11.25;9.20;;;;;;;;;;6245054;28;20452;-84
2021/09/10 02:19:51;;;;;;;11.48;8.93;;;16.80;99.90;;;;;;6227269;28;20021;-84
2021/09/10 02:22:51;;;;;;;11.50;10.40;;;17.10;99.90;;;;;;6227379;28;20026;-83
2021/09/10 02:25:52;;;;;;;11.15;9.95;;;;;;;;;;6244248;28;20460;-83
2021/09/10 02:28:53;;;;;;;12.68;10.70;;;;;;;;;;6243289;28;20858;-84
2021/09/10 02:31:54;;;;;;;12.93;10.65;;;17.00;99.90;;;;;;6243143;28;20021;-84
2021/09/10 02:34:54;;;;;;;14.05;10.32;;;17.10;99.90;;;;;;6227063;28;20045;-84
2021/09/10 02:37:55;;;;;;;10.43;9.38;;;17.00;99.90;;;;;;6223095;28;20104;-83
2021/09/10 02:40:56;;;;;;;10.65;9.55;;;16.90;99.90;;;;;;6203773;28;20045;-84
2021/09/10 02:43:56;;;;;;;11.90;10.40;;;17.00;99.90;;;;;;6196402;28;20041;-83
2021/09/10 02:46:57;;;;;;;13.27;10.77;;;16.90;99.90;;;;;;6226965;28;20036;-84
2021/09/10 02:49:57;;;;;;;12.27;10.45;;;16.90;99.90;;;;;;6227123;28;20025;-84
2021/09/10 02:52:58;;;;;;;11.15;10.05;;;17.10;99.90;;;;;;6210038;28;20065;-83
2021/09/10 02:56:00;;;;;;;11.15;10.05;;;;;;;;;;6223927;28;20520;-83
2021/09/10 02:59:01;;;;;;;13.75;11.75;;;17.10;99.90;;;;;;6226594;28;20079;-83
2021/09/10 03:02:01;;;;;;;12.25;10.70;;;16.80;99.90;;;;;;6203291;28;20575;-83
2021/09/10 03:05:04;;;;;;;10.82;9.73;;;16.80;99.90;;;;;;6202766;28;20026;-84
2021/09/10 03:08:04;;;;;;;11.43;10.32;;;16.70;99.90;;;;;;6211689;28;20030;-82
2021/09/10 03:11:05;;;;;;;11.20;10.10;;;16.80;99.90;;;;;;6218248;28;20070;-83
2021/09/10 03:14:05;;;;;;;10.50;9.50;;;16.80;99.90;;;;;;6186391;28;20038;-83
2021/09/10 03:17:06;;;;;;;11.57;10.02;;;16.80;99.90;;;;;;6202653;28;20053;-83
2021/09/10 03:20:07;;;;;;;13.18;11.65;;;16.90;99.90;;;;;;6212510;28;20025;-82
2021/09/10 03:23:08;;;;;;;12.32;10.80;;;16.90;99.90;;;;;;6225957;28;20038;-83
2021/09/10 03:26:08;;;;;;;11.98;10.88;;;16.90;99.90;;;;;;6209374;28;20061;-83
2021/09/10 03:29:09;;;;;;;12.35;10.95;;;16.90;99.90;;;;;;6225974;28;20021;-84
2021/09/10 03:32:10;;;;;;;11.23;10.07;;;16.70;99.90;;;;;;6185980;28;20034;-84
2021/09/10 03:35:10;;;;;;;11.48;9.20;;;16.80;99.90;;;;;;6186394;28;20045;-83
2021/09/10 03:38:11;;;;;;;11.77;10.15;;;;;;;;;;6185912;28;20030;-83
2021/09/10 03:41:12;;;;;;;11.32;10.13;;;16.70;99.90;;;;;;6218270;28;20029;-83
2021/09/10 03:44:12;;;;;;;17.73;10.73;;;16.80;99.90;;;;;;6230914;28;20502;-84
2021/09/10 03:47:13;;;;;;;12.32;10.18;;;17.00;99.90;;;;;;6209209;28;20514;-84
2021/09/10 03:50:13;;;;;;;12.55;11.23;;;16.90;99.90;;;;;;6209176;28;20037;-85
2021/09/10 03:53:15;;;;;;;14.32;11.57;;;;;;;;;;6225021;28;20120;-84
2021/09/10 03:56:15;;;;;;;11.93;10.63;;;17.20;99.90;;;;;;6241930;28;20029;-83
2021/09/10 03:59:16;;;;;;;11.93;10.73;;;;;;;;;;6241386;28;20387;-83
2021/09/10 04:02:17;;;;;;;12.18;10.52;;;16.80;99.90;;;;;;6225184;28;20033;-83
2021/09/10 04:05:17;;;;;;;12.32;11.13;;;16.80;99.90;;;;;;6217619;28;20030;-83
2021/09/10 04:08:18;;;;;;;11.55;10.43;;;16.60;99.90;;;;;;6212844;28;20531;-83
2021/09/10 04:11:18;;;;;;;12.45;10.50;;;16.80;99.90;;;;;;6189444;28;20371;-84
2021/09/10 04:14:19;;;;;;;11.45;10.30;;;16.70;99.90;;;;;;6218312;28;20103;-83
2021/09/10 04:17:19;;;;;;;12.32;10.80;;;16.80;99.90;;;;;;6185475;28;20026;-83
2021/09/10 04:20:20;;;;;;;12.75;10.80;;;16.70;99.90;;;;;;6217736;28;20040;-83
2021/09/10 04:23:21;;;;;;;11.57;10.30;;;;;;;;;;6189458;28;20026;-84
2021/09/10 04:26:22;;;;;;;11.32;10.23;;;16.80;99.90;;;;;;6234271;28;20678;-84
2021/09/10 04:29:22;;;;;;;12.10;10.55;;;16.80;99.90;;;;;;6230047;28;20029;-83
2021/09/10 04:32:23;;;;;;;10.98;9.98;;;16.80;99.90;;;;;;6213156;28;20025;-84
2021/09/10 04:35:24;;;;;;;11.68;10.55;;;16.80;99.90;;;;;;6226876;28;20052;-83
2021/09/10 04:38:25;;;;;;;12.52;10.35;;;;;;;;;;6207010;28;20452;-84
2021/09/10 04:41:25;;;;;;;14.02;9.50;;;16.80;99.90;;;;;;6223077;28;20033;-83
2021/09/10 04:44:26;;;;;;;11.52;10.32;;;;;;;;;;6223944;28;20041;-85
2021/09/10 04:47:27;;;;;;;12.48;10.40;;;16.90;99.90;;;;;;6246539;28;20025;-84
2021/09/10 04:50:28;;;;;;;12.73;10.25;;;16.90;99.90;;;;;;6229946;28;20036;-84
2021/09/10 04:53:28;;;;;;;11.82;10.00;;;17.10;99.90;;;;;;6229597;28;20029;-84
2021/09/10 04:56:29;;;;;;;12.52;9.45;;;16.90;99.90;;;;;;6229808;28;20026;-84
2021/09/10 04:59:30;;;;;;;12.30;9.70;;;16.90;99.90;;;;;;6229971;28;20049;-85
2021/09/10 05:02:30;;;;;;;11.57;9.85;;;17.00;99.90;;;;;;6246377;28;20096;-83
2021/09/10 05:05:31;;;;;;;12.30;10.73;;;17.00;99.90;;;;;;6229420;28;20029;-84
2021/09/10 05:08:31;;;;;;;15.63;10.30;;;17.20;99.90;;;;;;6229458;28;20053;-83
2021/09/10 05:11:32;;;;;;;12.30;11.07;;;17.00;99.90;;;;;;6246233;28;20926;-83
2021/09/10 05:14:33;;;;;;;12.77;11.40;;;17.00;99.90;;;;;;6245523;28;20092;-83
2021/09/10 05:17:33;;;;;;;13.38;10.65;;;17.20;99.90;;;;;;6245677;28;20026;-84
2021/09/10 05:20:34;;;;;;;11.90;10.73;;;17.00;99.90;;;;;;6245380;28;20099;-83
2021/09/10 05:23:34;;;;;;;13.63;10.50;;;17.30;99.90;;;;;;6229390;28;20108;-83
2021/09/10 05:26:35;;;;;;;10.70;9.70;;;17.00;99.90;;;;;;6244740;28;20412;-83
2021/09/10 05:29:35;;;;;;;11.02;9.82;;;17.20;99.90;;;;;;6228579;28;20037;-82
2021/09/10 05:32:36;;;;;;;12.85;10.43;;;;;;;;;;6244041;28;20097;-83
2021/09/10 05:35:37;;;;;;;11.10;9.40;;;17.30;99.90;;;;;;6244448;28;20037;-83
2021/09/10 05:38:38;;;;;;;14.50;9.98;;;16.90;99.90;;;;;;6245381;28;20466;-84
2021/09/10 05:41:39;;;;;;;11.10;9.90;;;;;;;;;;6244570;28;20033;-83
2021/09/10 05:44:39;;;;;;;11.57;10.40;;;17.10;99.90;;;;;;6244892;28;20042;-83
2021/09/10 05:47:40;;;;;;;11.77;10.57;;;;;;;;;;6244890;28;20044;-83
2021/09/10 05:50:41;;;;;;;14.48;11.98;;;17.10;99.90;;;;;;6246545;28;20048;-80
2021/09/10 05:53:42;;;;;;;13.05;10.75;;;;;;;;;;6244964;28;20040;-83
2021/09/10 05:56:43;;;;;;;12.30;10.93;;;;;;;;;;6245251;28;20151;-82
2021/09/10 05:59:44;;;;;;;13.30;10.55;;;;;;;;;;6244520;28;20026;-82
2021/09/10 06:02:44;;;;;;;13.57;11.65;;;17.00;99.90;;;;;;6244928;28;20087;-83
2021/09/10 06:05:45;;;;;;;13.75;12.05;;;17.30;99.90;;;;;;6228390;28;20036;-80
2021/09/10 06:08:45;;;;;;;12.23;10.93;;;17.30;99.90;;;;;;6245104;28;20041;-77
2021/09/10 06:11:46;;;;;;;15.98;11.88;;;18.00;99.90;;;;;;6246776;28;20033;-79
2021/09/10 06:14:47;;;;;;;12.45;11.18;;;17.30;99.90;;;;;;6245497;28;20033;-84
2021/09/10 06:17:48;;;;;;;12.77;11.55;;;17.60;99.90;;;;;;6244368;28;20533;-83
2021/09/10 06:20:49;;;;;;;11.98;10.77;;;;;;;;;;6244593;28;20025;-81
2021/09/10 06:23:51;;;;;;;15.77;12.43;;;;;;;;;;6245617;28;20060;-81
2021/09/10 06:26:52;;;;;;;12.25;10.93;;;17.20;99.90;;;;;;6244177;28;20040;-81
2021/09/10 06:29:53;;;;;;;12.27;10.35;;;;;;;;;;6244002;28;20037;-81
2021/09/10 06:32:54;;;;;;;11.38;9.82;;;17.60;99.90;;;;;;6243988;28;20025;-83
2021/09/10 06:35:54;;;;;;;11.20;9.98;;;17.70;99.90;;;;;;6227745;28;20464;-80
2021/09/10 06:42:53;;;;;;;11.23;9.95;;;;;;;;;;6245422;28;20539;-86
2021/09/10 06:45:54;;;;;;;12.15;10.25;;;18.10;99.90;;;;;;6240172;28;20079;-82
2021/09/10 06:48:55;;;;;;;14.45;10.32;;;;;;;;;;6226435;28;20025;-83
2021/09/10 06:51:56;;;;;;;16.58;10.88;;;18.50;99.90;;;;;;6242869;28;20117;-82
2021/09/10 06:54:57;;;;;;;11.77;10.20;;;;;;;;;;6226717;28;20037;-83
2021/09/10 06:57:57;;;;;;;10.98;9.18;;;18.70;99.90;;;;;;6242829;28;20487;-83
2021/09/10 07:00:58;;;;;;;12.15;9.80;;;;;;;;;;6242227;28;20033;-82
2021/09/10 07:03:59;;;;;;;11.80;9.65;;;18.90;99.90;;;;;;6243389;28;20017;-81
2021/09/10 07:06:59;;;;;;;10.07;9.07;;;19.00;99.90;;;;;;6243190;28;20078;-83
2021/09/10 07:18:34;;;;;;;13.15;10.98;;;19.40;99.90;;;;;;6243559;28;20041;-82
2021/09/10 07:21:47;;;;;;;13.02;10.20;;;19.30;99.90;;;;;;6202387;28;20041;-81
2021/09/10 07:35:11;;;;;;;10.40;9.18;;;20.30;99.90;;;;;;7001062;22;20061;-81
2021/09/10 07:42:10;;;;;;;10.90;9.27;;;;;;;;;;6267525;28;20048;-82
2021/09/10 07:45:11;;;;;;;10.63;9.40;;;20.20;99.90;;;;;;6250312;28;20104;-82
2021/09/10 07:51:36;;;;;;;10.02;9.02;;;;;;;;;;6167519;28;20122;-81
2021/09/10 07:55:00;;;;;;;10.68;9.57;;;20.80;99.90;;;;;;6151127;28;20378;-80
2021/09/10 07:58:00;;;;;;;10.15;9.07;;;21.00;99.90;;;;;;6164074;28;20366;-81
2021/09/10 08:04:59;;;;;;;13.57;9.65;;;;;;;;;;6167370;28;20019;-82
2021/09/10 08:08:00;;;;;;;10.82;9.68;;;21.70;99.90;;;;;;6165388;28;20548;-81
2021/09/10 08:11:01;;;;;;;10.45;8.98;;;;;;;;;;6165986;28;20047;-80
2021/09/10 08:14:13;;;;;;;10.05;8.80;;;21.80;99.90;;;;;;6167485;28;20058;-79
2021/09/10 08:17:17;;;;;;;11.23;9.05;;;21.70;99.90;;;;;;6150262;28;20069;-84
2021/09/10 08:20:18;;;;;;;11.02;9.93;;;;;;;;;;6166538;28;20791;-80
2021/09/10 08:23:19;;;;;;;9.88;8.82;;;;;;;;;;6158701;28;20046;-81
2021/09/10 08:26:19;;;;;;;11.07;9.98;;;21.80;99.90;;;;;;6175100;28;20463;-82
2021/09/10 08:29:20;;;;;;;12.50;10.45;;;21.80;99.90;;;;;;6234400;28;20036;-82
2021/09/10 08:32:20;;;;;;;10.60;9.50;;;21.70;99.90;;;;;;6232323;28;20514;-82
2021/09/10 08:35:21;;;;;;;10.45;9.45;;;21.80;99.90;;;;;;6215580;28;20112;-82
2021/09/10 08:38:31;;;;;;;11.85;10.20;;;22.00;99.90;;;;;;6231242;28;20176;-82
2021/09/10 08:41:49;;;;;;;10.95;9.85;;;23.30;99.90;;;;;;6216653;28;20068;-82
2021/09/10 08:44:56;;;;;;;9.32;8.43;;;24.00;99.90;;;;;;6217483;28;20372;-82
2021/09/10 08:48:00;;;;;;;11.40;8.82;;;;;;;;;;6201348;28;20037;-82
2021/09/10 08:51:13;;;;;;;9.82;8.82;;;24.60;99.90;;;;;;6217008;28;20029;-82
2021/09/10 08:54:14;;;;;;;9.75;8.63;;;;;;;;;;6217212;28;20056;-82
2021/09/10 08:57:15;;;;;;;9.93;8.67;;;;;;;;;;6216748;28;20121;-83
2021/09/10 09:00:17;;;;;;;10.63;9.10;;;24.70;99.90;;;;;;6233975;28;20029;-83
2021/09/10 09:03:18;;;;;;;9.23;8.32;;;;;;;;;;6233203;28;20025;-83
2021/09/10 09:06:31;;;;;;;10.10;9.07;;;24.10;99.90;;;;;;6216493;28;20077;-82
2021/09/10 09:09:46;;;;;;;9.93;8.52;;;24.10;99.90;;;;;;6220355;28;20104;-83
2021/09/10 09:12:47;;;;;;;8.55;7.63;;;;;;;;;;6237525;28;20025;-83
2021/09/10 09:15:48;;;;;;;9.40;8.50;;;;;;;;;;6220659;28;20121;-83
2021/09/10 09:18:52;;;;;;;11.70;8.20;;;23.70;99.90;;;;;;6237469;28;20022;-81
2021/09/10 09:21:52;;;;;;;8.57;7.72;;;24.10;99.90;;;;;;6237181;28;20057;-82
2021/09/10 09:25:06;;;;;;;8.83;7.93;;;24.20;99.70;;;;;;6237316;28;20044;-81
2021/09/10 09:28:30;;;;;;;8.52;7.72;;;24.40;99.90;;;;;;6237293;28;20060;-82
2021/09/10 09:31:31;;;;;;;8.05;7.22;;;24.60;98.00;;;;;;6220243;28;20029;-82
2021/09/10 09:34:45;;;;;;;8.33;7.53;;;24.80;98.10;;;;;;6242481;28;20045;-80
2021/09/10 09:37:46;;;;;;;8.32;7.47;;;25.00;96.20;;;;;;6237447;28;20027;-82
2021/09/10 09:40:51;;;;;;;8.13;7.33;;;25.00;96.80;;;;;;6236732;28;20025;-80
2021/09/10 09:44:08;;;;;;;7.90;7.13;;;25.00;96.60;;;;;;6237023;28;20076;-81
2021/09/10 09:47:09;;;;;;;7.53;6.82;;;25.00;97.30;;;;;;6237779;28;20033;-82
2021/09/10 09:50:11;;;;;;;8.20;7.43;;;25.00;97.30;;;;;;6236453;28;20049;-82
2021/09/10 09:53:14;;;;;;;9.82;7.57;;;25.00;96.60;;;;;;6235872;28;20029;-82
2021/09/10 09:56:14;;;;;;;8.15;7.28;;;24.90;96.00;;;;;;6220824;28;20025;-82
2021/09/10 09:59:16;;;;;;;8.23;7.43;;;;;;;;;;6236184;28;20025;-82
2021/09/10 10:02:17;;;;;;;8.82;8.02;;;24.20;95.30;;;;;;6252976;28;20032;-81
2021/09/10 10:05:17;;;;;;;9.47;8.47;;;24.60;96.50;;;;;;6235965;28;20040;-82
2021/09/10 10:08:23;;;;;;;8.73;7.93;;;24.70;97.60;;;;;;6236218;28;20108;-82
2021/09/10 10:11:25;;;;;;;8.90;7.60;;;24.80;96.40;;;;;;6219695;28;20427;-82
2021/09/10 10:14:34;;;;;;;8.85;7.95;;;24.90;96.00;;;;;;6219438;28;20064;-82
2021/09/10 10:17:36;;;;;;;8.38;7.35;;;25.00;96.40;;;;;;6235814;28;20394;-82
2021/09/10 10:20:46;;;;;;;9.05;8.15;;;25.00;95.70;;;;;;6251706;28;20048;-80
2021/09/10 10:23:46;;;;;;;8.88;7.97;;;25.10;95.90;;;;;;6252147;28;20037;-83
2021/09/10 10:26:47;;;;;;;8.33;7.37;;;25.40;95.60;;;;;;6251552;28;20083;-82
2021/09/10 10:29:48;;;;;;;8.27;7.43;;;25.30;95.90;;;;;;6235642;28;20048;-82
2021/09/10 10:32:51;;;;;;;8.25;7.45;;;25.30;95.50;;;;;;6218945;28;20112;-81
2021/09/10 10:35:51;;;;;;;9.95;8.63;;;25.00;94.60;;;;;;6235530;28;20133;-82
2021/09/10 10:39:20;;;;;;;10.20;9.13;;;24.80;95.10;;;;;;6232913;28;20021;-82
2021/09/10 10:42:21;;;;;;;9.23;8.32;;;24.60;93.80;;;;;;6229292;28;20379;-82
2021/09/10 10:45:47;;;;;;;8.87;7.93;;;24.50;95.60;;;;;;6234414;28;20032;-82
2021/09/10 10:48:48;;;;;;;8.77;7.85;;;24.50;94.90;;;;;;6270125;28;20025;-82
2021/09/10 10:51:48;;;;;;;8.80;7.93;;;24.30;95.40;;;;;;6234561;28;20040;-82
2021/09/10 10:55:18;;;;;;;8.77;7.97;;;24.30;95.90;;;;;;6234823;28;20035;-83
2021/09/10 10:58:23;;;;;;;9.38;8.35;;;24.30;95.10;;;;;;6250269;28;20048;-84
2021/09/10 11:01:23;;;;;;;10.70;8.88;;;24.10;99.90;;;;;;6233688;28;20017;-84
2021/09/10 11:04:25;;;;;;;10.17;9.20;;;24.20;96.60;;;;;;6217006;28;20367;-84
2021/09/10 11:07:26;;;;;;;11.27;8.82;;;24.10;97.10;;;;;;6233691;28;20064;-83
2021/09/10 11:10:27;;;;;;;11.57;8.60;;;24.20;97.50;;;;;;6234209;28;20021;-82
2021/09/10 11:13:28;;;;;;;9.37;8.47;;;24.40;99.90;;;;;;6233426;28;20043;-82
2021/09/10 11:16:29;;;;;;;10.63;8.45;;;24.30;99.90;;;;;;6234074;28;20033;-86
2021/09/10 11:19:30;;;;;;;11.35;8.68;;;;;;;;;;6217783;28;20032;-84
2021/09/10 11:22:31;;;;;;;9.57;8.30;;;;;;;;;;6250583;28;20025;-83
2021/09/10 11:25:32;;;;;;;9.03;8.17;;;;;;;;;;6233653;28;20029;-81
2021/09/10 11:28:34;;;;;;;10.07;8.75;;;;;;;;;;6234893;28;20017;-82
2021/09/10 11:31:34;;;;;;;9.77;8.77;;;24.50;99.90;;;;;;6250625;28;20025;-82
2021/09/10 11:34:35;;;;;;;9.70;8.70;;;24.50;99.90;;;;;;6233764;28;20178;-80
2021/09/10 11:37:35;;;;;;;9.27;8.37;;;24.50;99.00;;;;;;6233371;28;20032;-80
2021/09/10 11:40:44;;;;;;;9.83;8.80;;;24.50;97.70;;;;;;6250122;28;20123;-81
2021/09/10 11:43:45;;;;;;;9.68;8.65;;;24.40;97.20;;;;;;6233971;28;20051;-81
2021/09/10 11:46:45;;;;;;;11.13;8.57;;;24.40;97.60;;;;;;6268363;28;20025;-81
2021/09/10 11:50:00;;;;;;;9.90;9.00;;;24.70;99.90;;;;;;6233412;28;20038;-82
2021/09/10 11:53:01;;;;;;;8.80;7.90;;;24.50;97.90;;;;;;6249644;28;20040;-82
2021/09/10 11:56:08;;;;;;;9.90;8.23;;;25.00;99.90;;;;;;6216836;28;20068;-81
2021/09/10 11:59:16;;;;;;;9.80;8.90;;;24.80;97.20;;;;;;6233974;28;20040;-83
2021/09/10 12:02:18;;;;;;;9.88;8.82;;;24.80;99.90;;;;;;6217060;28;20021;-81
2021/09/10 12:05:19;;;;;;;9.27;8.32;;;24.80;97.30;;;;;;6217615;28;20107;-81
2021/09/10 12:08:20;;;;;;;10.00;9.10;;;24.70;97.20;;;;;;6267876;28;20036;-81
2021/09/10 12:11:21;;;;;;;9.13;8.23;;;24.40;99.90;;;;;;6249903;28;20036;-81
2021/09/10 12:14:32;;;;;;;10.63;8.63;;;24.50;99.90;;;;;;6249821;28;20041;-80
2021/09/10 12:17:37;;;;;;;9.63;8.63;;;24.20;99.90;;;;;;6233425;28;20072;-80
2021/09/10 12:20:38;;;;;;;12.68;8.57;;;;;;;;;;6233690;28;20028;-85
2021/09/10 12:23:39;;;;;;;10.10;8.15;;;;;;;;;;6233409;28;20099;-81
2021/09/10 12:26:53;;;;;;;11.10;8.50;;;24.10;99.90;;;;;;6267450;28;20459;-82
2021/09/10 12:30:07;;;;;;;8.38;7.57;;;24.00;98.60;;;;;;6215591;28;20064;-89
2021/09/10 12:33:12;;;;;;;9.35;8.18;;;23.90;99.90;;;;;;6248694;28;20020;-87
2021/09/10 12:36:12;;;;;;;12.30;8.18;;;23.90;99.90;;;;;;6217129;28;20087;-83
2021/09/10 12:39:14;;;;;;;9.17;8.20;;;;;;;;;;6233682;28;20017;-85
2021/09/10 12:42:14;;;;;;;9.95;8.52;;;24.10;98.70;;;;;;6249677;28;20029;-86
2021/09/10 12:45:17;;;;;;;9.63;8.57;;;24.10;99.50;;;;;;6237974;28;20375;-85
2021/09/10 12:48:18;;;;;;;9.50;8.52;;;;;;;;;;6221356;28;20471;-85
2021/09/10 12:51:19;;;;;;;9.53;7.90;;;;;;;;;;6254618;28;20048;-85
2021/09/10 12:54:20;;;;;;;8.77;7.87;;;24.80;98.20;;;;;;6237601;28;20089;-84
2021/09/10 12:57:21;;;;;;;8.63;7.83;;;;;;;;;;6221130;28;20059;-85
2021/09/10 13:00:22;;;;;;;8.17;7.37;;;24.90;97.70;;;;;;6237089;28;20036;-85
2021/09/10 13:03:22;;;;;;;8.37;7.57;;;25.20;97.90;;;;;;6221053;28;20394;-84
2021/09/10 13:06:23;;;;;;;8.37;7.57;;;24.90;98.10;;;;;;6220817;28;20017;-83
2021/09/10 13:09:25;;;;;;;8.03;6.70;;;24.80;97.80;;;;;;6236944;28;20120;-84
2021/09/10 13:12:46;;;;;;;7.75;6.95;;;24.90;98.00;;;;;;6254589;28;20506;-85
2021/09/10 13:15:47;;;;;;;7.35;6.65;;;;;;;;;;6238883;28;20048;-85
2021/09/10 13:18:47;;;;;;;8.10;7.30;;;25.00;96.30;;;;;;6254105;28;20087;-84
2021/09/10 13:21:48;;;;;;;8.03;7.23;;;25.00;98.30;;;;;;6220347;28;20446;-84
2021/09/10 13:24:49;;;;;;;6.77;6.07;;;25.10;97.90;;;;;;6221402;28;20028;-84
2021/09/10 13:27:50;;;;;;;7.87;6.40;;;25.10;97.30;;;;;;6236834;28;20103;-84
2021/09/10 13:30:51;;;;;;;8.63;6.40;;;;;;;;;;6221098;28;20079;-85
2021/09/10 13:33:51;;;;;;;6.97;6.37;;;25.40;95.70;;;;;;6252724;28;20048;-86
2021/09/10 13:36:52;;;;;;;7.57;6.47;;;25.40;96.60;;;;;;6237016;28;20471;-83
2021/09/10 13:39:53;;;;;;;7.00;6.30;;;25.30;95.60;;;;;;6237233;28;20028;-83
2021/09/10 13:42:53;;;;;;;8.93;5.77;;;24.10;94.70;;;;;;6236551;28;20124;-84
2021/09/10 13:45:54;;;;;;;9.67;6.57;;;25.40;95.50;;;;;;6220395;28;20021;-84
2021/09/10 13:48:55;;;;;;;6.03;5.43;;;25.20;96.00;;;;;;6220237;28;20029;-85
2021/09/10 13:51:56;;;;;;;6.47;5.83;;;24.90;95.10;;;;;;6220054;28;20362;-88
2021/09/10 13:54:58;;;;;;;6.72;6.13;;;24.80;95.10;;;;;;6251643;28;20052;-86
2021/09/10 13:57:59;;;;;;;7.93;6.28;;;24.80;95.70;;;;;;6220427;28;20128;-85
2021/09/10 14:01:00;;;;;;;9.00;6.00;;;;;;;;;;6219695;28;20028;-85
2021/09/10 14:04:00;;;;;;;7.00;6.30;;;24.80;93.00;;;;;;6253094;28;20048;-82
2021/09/10 14:07:02;;;;;;;7.43;6.60;;;25.00;93.30;;;;;;6235484;28;20513;-86
2021/09/10 14:10:04;;;;;;;8.10;6.57;;;24.90;93.30;;;;;;6219555;28;20367;-83
2021/09/10 14:13:05;;;;;;;6.90;6.30;;;25.00;93.50;;;;;;6252153;28;20021;-85
2021/09/10 14:16:05;;;;;;;7.53;6.40;;;24.90;93.60;;;;;;6235608;28;20040;-84
2021/09/10 14:19:06;;;;;;;7.13;6.43;;;24.80;93.20;;;;;;6218784;28;20474;-84
2021/09/10 14:22:07;;;;;;;6.53;5.93;;;24.90;93.30;;;;;;6235414;28;20068;-84
2021/09/10 14:25:09;;;;;;;7.67;6.83;;;24.80;94.40;;;;;;6219176;28;20021;-85
2021/09/10 14:28:09;;;;;;;8.10;7.20;;;24.70;99.90;;;;;;6235788;28;20078;-85
2021/09/10 14:31:10;;;;;;;7.77;7.07;;;24.70;93.20;;;;;;6219188;28;20512;-84
2021/09/10 14:34:11;;;;;;;8.30;7.50;;;24.60;92.40;;;;;;6251825;28;20395;-85
2021/09/10 14:37:12;;;;;;;8.65;6.97;;;24.60;92.60;;;;;;6219550;28;20112;-85
2021/09/10 14:40:13;;;;;;;7.87;7.00;;;24.40;92.70;;;;;;6235182;28;20074;-84
2021/09/10 14:43:14;;;;;;;11.90;7.10;;;24.40;92.70;;;;;;6235367;28;20021;-86
2021/09/10 14:46:15;;;;;;;8.77;7.87;;;;;;;;;;6218944;28;20103;-84
2021/09/10 14:49:15;;;;;;;19.30;7.97;;;24.30;91.30;;;;;;6234154;28;20459;-84
2021/09/10 14:52:17;;;;;;;8.30;7.40;;;23.90;99.90;;;;;;6218804;28;20029;-84
2021/09/10 14:55:25;;;;;;;31.70;9.88;;;23.90;99.90;;;;;;6234741;28;20688;-89
2021/09/10 14:58:28;;;;;;;10.43;8.18;;;24.00;93.60;;;;;;6219197;28;20036;-84
2021/09/10 15:01:29;;;;;;;10.55;7.85;;;23.80;99.90;;;;;;6235460;28;20035;-85
2021/09/10 15:04:35;;;;;;;11.25;8.25;;;23.70;99.90;;;;;;6235022;28;20112;-85
2021/09/10 15:07:38;;;;;;;10.00;7.82;;;23.50;99.90;;;;;;6218553;28;20025;-83
2021/09/10 15:10:39;;;;;;;9.45;7.80;;;23.50;99.90;;;;;;6218221;28;20021;-83
2021/09/10 15:13:40;;;;;;;9.47;8.47;;;23.60;99.90;;;;;;6250892;28;20489;-81
2021/09/10 15:16:40;;;;;;;8.83;7.93;;;23.40;99.90;;;;;;6234868;28;20041;-81
2021/09/10 15:19:41;;;;;;;9.27;7.80;;;;;;;;;;6234413;28;20029;-82
2021/09/10 15:22:42;;;;;;;8.97;8.07;;;23.50;99.90;;;;;;6250978;28;20056;-79
2021/09/10 15:25:43;;;;;;;8.93;8.07;;;;;;;;;;6250778;28;20402;-82
2021/09/10 15:28:44;;;;;;;8.30;7.40;;;;;;;;;;6234158;28;20443;-84
2021/09/10 15:31:51;;;;;;;17.23;8.82;;;23.10;99.90;;;;;;6251372;28;20021;-87
2021/09/10 15:34:54;;;;;;;32.72;9.68;;;23.30;99.90;;;;;;6217667;28;20049;-84
2021/09/10 15:37:55;;;;;;;26.60;9.50;;;;;;;;;;6217481;28;20032;-85
2021/09/10 15:40:56;;;;;;;14.00;8.57;;;;;;;;;;6233969;28;20017;-85
2021/09/10 15:43:57;;;;;;;27.43;9.27;;;;;;;;;;6234093;28;20041;-84
2021/09/10 15:46:58;;;;;;;16.27;8.80;;;;;;;;;;6234080;28;20337;-85
2021/09/10 15:49:59;;;;;;;15.23;8.70;;;;;;;;;;6250300;28;20089;-84
2021/09/10 15:53:00;;;;;;;38.23;10.17;;;;;;;;;;6268680;28;20356;-81
2021/09/10 15:56:01;;;;;;;29.58;9.48;;;23.70;99.90;;;;;;6249825;28;20048;-84
2021/09/10 15:59:02;;;;;;;10.53;8.70;;;;;;;;;;6217233;28;20033;-85
2021/09/10 16:02:06;;;;;;;17.73;11.10;;;23.80;99.90;;;;;;6250220;28;20051;-87
2021/09/10 16:05:07;;;;;;;14.52;10.35;;;23.70;95.90;;;;;;6234220;28;20082;-80
2021/09/10 16:08:08;;;;;;;11.43;10.23;;;23.70;99.90;;;;;;6234267;28;20025;-84
2021/09/10 16:11:08;;;;;;;12.53;9.20;;;23.90;96.30;;;;;;6233663;28;20188;-86
2021/09/10 16:14:09;;;;;;;11.80;9.23;;;23.80;96.70;;;;;;6216213;28;20044;-82
2021/09/10 16:17:10;;;;;;;12.77;9.27;;;23.80;96.50;;;;;;6234714;28;20100;-80
2021/09/10 16:20:20;;;;;;;13.47;9.13;;;23.80;96.90;;;;;;6258251;28;20029;-89
2021/09/10 16:23:20;;;;;;;10.55;8.68;;;23.80;97.70;;;;;;6243319;28;20067;-85
2021/09/10 16:26:27;;;;;;;11.03;9.37;;;23.70;99.90;;;;;;6226177;28;20455;-88
2021/09/10 16:29:28;;;;;;;10.35;9.10;;;;;;;;;;6227164;28;20029;-90
2021/09/10 16:32:29;;;;;;;16.20;9.57;;;;;;;;;;6243146;28;20024;-89
2021/09/10 16:35:30;;;;;;;11.70;9.40;;;;;;;;;;6258026;28;20056;-81
2021/09/10 16:38:30;;;;;;;10.07;8.63;;;23.30;99.10;;;;;;6257860;28;20363;-90